Погода Ржавецна неделю

Гомельская область, Белоруссия

15 - 21 июля
  • 15июля
    Сегодня
    +21°
    +31°
    Ясно и безоблачно
    ВремяПогодаТемператураВлажностьДавлениеВетер, м/сВероятность осадков
    00:00Облачно с прояснениями+20°C94 %748 мм2.6 м/с4 %
    03:00Облачно с прояснениями+19°C98 %748 мм2.5 м/с2 %
    06:00Практически безоблачно+21°C99 %748 мм1.8 м/с2 %
    09:00Пасмурно, сплошная облачность+25°C89 %750 мм1.8 м/с7 %
    12:00Небольшая облачность+27°C73 %749 мм2.3 м/с6 %
    15:00Ясно и безоблачно+30°C65 %749 мм2.6 м/с2 %
    18:00Облачно с прояснениями+32°C64 %749 мм3.9 м/с15 %
    21:00Облачно с прояснениями+26°C82 %749 мм2.7 м/с21 %
  • 16июля
    Вторник
    +21°
    +34°
    Практически безоблачно
    ВремяПогодаТемператураВлажностьДавлениеВетер, м/сВероятность осадков
    00:00Облачно с прояснениями, небольшой дождь+22°C93 %749 мм2.2 м/с57 %
    03:00Ясно и безоблачно+21°C98 %749 мм2.2 м/с3 %
    06:00Небольшая облачность+21°C97 %749 мм1.4 м/с2 %
    09:00Ясно и безоблачно+26°C81 %750 мм2.1 м/с2 %
    12:00Ясно и безоблачно+30°C67 %750 мм2.8 м/с3 %
    15:00Практически безоблачно+33°C60 %750 мм3.3 м/с5 %
    18:00Практически безоблачно+33°C58 %749 мм4.8 м/с4 %
    21:00Ясно и безоблачно+27°C78 %749 мм3.0 м/с2 %
  • 17июля
    Среда
    +21°
    +36°
    Практически безоблачно
    ВремяПогодаТемператураВлажностьДавлениеВетер, м/сВероятность осадков
    00:00Ясно и безоблачно+24°C85 %749 мм2.5 м/с2 %
    03:00Ясно и безоблачно+22°C89 %749 мм2.5 м/с2 %
    06:00Ясно и безоблачно+22°C85 %749 мм2.2 м/с2 %
    09:00Ясно и безоблачно+28°C71 %750 мм3.1 м/с2 %
    12:00Практически безоблачно+33°C55 %750 мм4.0 м/с6 %
    15:00Практически безоблачно+34°C51 %749 мм4.5 м/с26 %
    18:00Облачно с прояснениями+33°C58 %749 мм5.7 м/с43 %
    21:00Небольшая облачность+28°C77 %749 мм3.0 м/с22 %
  • 18июля
    Четверг
    +17°
    +31°
    Облачно с прояснениями
    ВремяПогодаТемператураВлажностьДавлениеВетер, м/сВероятность осадков
    00:00Небольшая облачность+24°C86 %749 мм2.3 м/с16 %
    03:00Ясно и безоблачно+23°C93 %749 мм2.9 м/с10 %
    06:00Облачно с прояснениями+22°C96 %750 мм3.1 м/с5 %
    09:00Облачно с прояснениями+25°C80 %750 мм4.0 м/с24 %
    12:00Небольшая облачность+27°C61 %750 мм4.0 м/с38 %
    15:00Облачно с прояснениями+28°C48 %750 мм4.7 м/с17 %
    18:00Ясно и безоблачно+26°C47 %750 мм5.7 м/с9 %
    21:00Ясно и безоблачно+23°C62 %750 мм3.8 м/с2 %
  • 19июля
    Пятница
    +15°
    +29°
    Облачно с прояснениями
    ВремяПогодаТемператураВлажностьДавлениеВетер, м/сВероятность осадков
    00:00Ясно и безоблачно+20°C73 %750 мм2.8 м/с2 %
    03:00Ясно и безоблачно+19°C80 %750 мм3.1 м/с2 %
    06:00Ясно и безоблачно+18°C82 %750 мм2.7 м/с2 %
    09:00Ясно и безоблачно+23°C65 %750 мм3.9 м/с2 %
    12:00Небольшая облачность+26°C48 %750 мм5.0 м/с11 %
    15:00Облачно с прояснениями+27°C43 %749 мм5.3 м/с4 %
    18:00Ясно и безоблачно+28°C40 %749 мм6.0 м/с2 %
    21:00Ясно и безоблачно+22°C54 %749 мм3.9 м/с2 %
Мы используем cookies
Соглашаюсь